createdAt,value
2018-08-11T00:01:20.430Z,95894.23
2018-08-11T00:03:50.279Z,95901.36
2018-08-11T00:06:20.604Z,95896.42
2018-08-11T00:08:50.341Z,95897.09
2018-08-11T00:11:20.195Z,95901.13
2018-08-11T00:13:49.904Z,95901.77
2018-08-11T00:16:20.499Z,95906.66
2018-08-11T00:18:50.765Z,95910.66
2018-08-11T00:21:21.425Z,95904.42
2018-08-11T00:23:51.883Z,95904.47
2018-08-11T00:26:22.547Z,95897.81
2018-08-11T00:28:53.893Z,95889.67
2018-08-11T00:31:24.448Z,95897.80
2018-08-11T00:33:54.839Z,95895.28
2018-08-11T00:36:25.564Z,95888.48
2018-08-11T00:38:55.928Z,95896.86
2018-08-11T00:41:26.704Z,95888.98
2018-08-11T00:43:57.580Z,95895.27
2018-08-11T00:46:27.463Z,95896.55
2018-08-11T00:48:58.988Z,95888.20
2018-08-11T00:51:29.653Z,95891.03
2018-08-11T00:54:00.474Z,95894.40
2018-08-11T00:56:31.080Z,95888.06
2018-08-11T00:59:01.665Z,95894.84
2018-08-11T01:01:32.183Z,95891.59
2018-08-11T01:04:02.520Z,95884.14
2018-08-11T01:06:33.022Z,95882.45
2018-08-11T01:09:04.602Z,95882.45
2018-08-11T01:11:35.291Z,95878.47
2018-08-11T01:14:05.665Z,95878.96
2018-08-11T01:16:35.956Z,95875.83
2018-08-11T01:19:07.176Z,95878.88
2018-08-11T01:21:37.659Z,95878.75
2018-08-11T01:24:08.111Z,95875.53
2018-08-11T01:26:38.900Z,95879.43
2018-08-11T01:29:10.098Z,95882.18
2018-08-11T01:31:40.497Z,95883.96
2018-08-11T01:34:11.087Z,95874.02
2018-08-11T01:36:41.455Z,95875.91
2018-08-11T01:39:12.664Z,95871.80
2018-08-11T01:41:43.113Z,95868.20
2018-08-11T01:44:13.873Z,95869.90
2018-08-11T01:46:44.060Z,95868.88
2018-08-11T01:49:14.847Z,95871.82
2018-08-11T01:51:44.651Z,95871.82
2018-08-11T01:54:14.384Z,95866.20
2018-08-11T01:56:44.327Z,95858.44
2018-08-11T01:59:14.728Z,95858.58
2018-08-11T02:01:44.564Z,95858.27
2018-08-11T02:04:15.180Z,95861.72
2018-08-11T02:06:45.564Z,95856.30
2018-08-11T02:09:17.280Z,95857.47
2018-08-11T02:11:48.094Z,95851.56
2018-08-11T02:14:18.601Z,95848.97
2018-08-11T02:16:49.180Z,95854.09
2018-08-11T02:19:19.741Z,95852.25
2018-08-11T02:21:50.219Z,95858.19
2018-08-11T02:24:20.800Z,95855.37
2018-08-11T02:26:51.750Z,95849.97
2018-08-11T02:29:23.288Z,95851.59
2018-08-11T02:31:53.668Z,95843.38
2018-08-11T02:34:24.247Z,95851.08
2018-08-11T02:36:54.590Z,95847.77
2018-08-11T02:39:26.044Z,95846.09
2018-08-11T02:41:56.604Z,95850.53
2018-08-11T02:44:26.856Z,95843.78
2018-08-11T02:46:57.360Z,95847.17
2018-08-11T02:49:27.809Z,95844.27
2018-08-11T02:51:58.500Z,95847.74
2018-08-11T02:54:29.097Z,95843.95
2018-08-11T02:56:59.589Z,95837.20
2018-08-11T02:59:30.264Z,95840.86
2018-08-11T03:02:00.338Z,95846.50
2018-08-11T03:04:30.999Z,95843.86
2018-08-11T03:07:01.372Z,95845.20
2018-08-11T03:09:32.618Z,95841.79
2018-08-11T03:12:03.217Z,95840.29
2018-08-11T03:14:33.974Z,95843.47
2018-08-11T03:17:04.199Z,95850.42
2018-08-11T03:19:34.775Z,95847.09
2018-08-11T03:22:05.559Z,95845.81
2018-08-11T03:24:35.601Z,95853.02
2018-08-11T03:27:05.947Z,95855.02
2018-08-11T03:29:36.033Z,95856.28
2018-08-11T03:32:05.734Z,95861.66
2018-08-11T03:34:35.447Z,95861.19
2018-08-11T03:37:05.265Z,95851.14
2018-08-11T03:39:35.103Z,95857.31
2018-08-11T03:42:04.793Z,95860.17
2018-08-11T03:44:34.468Z,95864.69
2018-08-11T03:47:04.306Z,95855.36
2018-08-11T03:49:34.201Z,95863.45
2018-08-11T03:52:04.051Z,95864.45
2018-08-11T03:54:33.835Z,95863.56
2018-08-11T03:57:03.757Z,95867.82
2018-08-11T03:59:33.507Z,95868.77
2018-08-11T04:02:03.479Z,95868.36
2018-08-11T04:04:33.069Z,95869.20
2018-08-11T04:07:02.962Z,95861.45
2018-08-11T04:09:32.622Z,95866.04
2018-08-11T04:12:02.453Z,95861.42
2018-08-11T04:14:32.108Z,95861.06
2018-08-11T04:17:02.162Z,95870.47
2018-08-11T04:19:32.899Z,95871.02
2018-08-11T04:22:03.492Z,95879.25
2018-08-11T04:24:34.221Z,95880.94
2018-08-11T04:27:04.690Z,95881.20
2018-08-11T04:29:35.693Z,95883.12
2018-08-11T04:32:06.264Z,95885.25
2018-08-11T04:34:36.733Z,95887.53
2018-08-11T04:37:07.376Z,95883.81
2018-08-11T04:39:37.988Z,95884.34
2018-08-11T04:42:08.608Z,95885.23
2018-08-11T04:44:39.467Z,95889.91
2018-08-11T04:47:10.001Z,95888.39
2018-08-11T04:49:41.930Z,95891.59
2018-08-11T04:52:12.487Z,95891.67
2018-08-11T04:54:42.600Z,95893.84
2018-08-11T04:57:13.257Z,95883.97
2018-08-11T04:59:44.659Z,95886.39
2018-08-11T05:02:15.018Z,95665.77
2018-08-11T05:04:45.959Z,95880.75
2018-08-11T05:07:16.200Z,95878.06
2018-08-11T05:09:46.639Z,95882.20
2018-08-11T05:12:17.319Z,95880.70
2018-08-11T05:14:48.124Z,95880.97
2018-08-11T05:17:18.577Z,95635.69
2018-08-11T05:19:49.918Z,95884.28
2018-08-11T05:22:20.344Z,95883.72
2018-08-11T05:24:50.816Z,95880.68
2018-08-11T05:27:21.626Z,95875.03
2018-08-11T05:29:52.532Z,95882.38
2018-08-11T05:32:22.874Z,95877.13
2018-08-11T05:34:53.235Z,95878.61
2018-08-11T05:37:23.755Z,95880.63
2018-08-11T05:39:53.588Z,95881.05
2018-08-11T05:42:23.316Z,95879.50
2018-08-11T05:44:53.731Z,95866.59
2018-08-11T05:47:24.301Z,95874.67
2018-08-11T05:49:55.356Z,95869.09
2018-08-11T05:52:25.522Z,95867.56
2018-08-11T05:54:55.158Z,95866.59
2018-08-11T05:57:25.419Z,95860.84
2018-08-11T05:59:56.243Z,95853.27
2018-08-11T06:02:26.613Z,95852.45
2018-08-11T06:04:56.316Z,95852.97
2018-08-11T06:07:27.092Z,95850.10
2018-08-11T06:09:57.131Z,95855.27
2018-08-11T06:12:26.858Z,95856.68
2018-08-11T06:14:56.417Z,95847.41
2018-08-11T06:17:26.065Z,95852.88
2018-08-11T06:19:55.852Z,95854.45
2018-08-11T06:22:25.571Z,95844.12
2018-08-11T06:24:55.344Z,95845.88
2018-08-11T06:27:25.037Z,95839.84
2018-08-11T06:29:54.829Z,95837.03
2018-08-11T06:32:24.726Z,95840.47
2018-08-11T06:34:54.363Z,95832.55
2018-08-11T06:37:24.124Z,95837.67
2018-08-11T06:39:53.968Z,95834.06
2018-08-11T06:42:23.499Z,95828.90
2018-08-11T06:44:53.359Z,95819.82
2018-08-11T06:47:23.073Z,95821.58
2018-08-11T06:49:52.797Z,95817.05
2018-08-11T06:52:22.435Z,95816.44
2018-08-11T06:54:52.161Z,95809.37
2018-08-11T06:57:21.936Z,95812.64
2018-08-11T06:59:51.717Z,95811.30
2018-08-11T07:02:21.406Z,95808.05
2018-08-11T07:04:51.098Z,95804.45
2018-08-11T07:07:20.846Z,95804.38
2018-08-11T07:09:50.765Z,95800.98
2018-08-11T07:12:20.708Z,95791.72
2018-08-11T07:14:50.516Z,95786.84
2018-08-11T07:17:20.624Z,95787.15
2018-08-11T07:19:50.529Z,95782.03
2018-08-11T07:22:20.298Z,95787.94
2018-08-11T07:24:49.972Z,95783.05
2018-08-11T07:27:19.685Z,95777.77
2018-08-11T07:29:49.571Z,95773.96
2018-08-11T07:32:20.093Z,95772.83
2018-08-11T07:34:49.767Z,95598.88
2018-08-11T07:37:19.643Z,95765.42
2018-08-11T07:39:49.482Z,95761.71
2018-08-11T07:42:19.294Z,95764.47
2018-08-11T07:44:48.936Z,95579.76
2018-08-11T07:47:18.668Z,95759.36
2018-08-11T07:49:48.475Z,95753.68
2018-08-11T07:52:18.220Z,95751.72
2018-08-11T07:54:47.883Z,95743.48
2018-08-11T07:57:17.752Z,95749.70
2018-08-11T07:59:47.405Z,95747.55
2018-08-11T08:02:17.440Z,95737.77
2018-08-11T08:04:47.319Z,95737.37
2018-08-11T08:07:17.186Z,95744.89
2018-08-11T08:09:47.553Z,95739.32
2018-08-11T08:12:17.987Z,95733.11
2018-08-11T08:14:48.411Z,95733.69
2018-08-11T08:17:19.058Z,95730.78
2018-08-11T08:19:49.639Z,95728.98
2018-08-11T08:22:20.215Z,95726.39
2018-08-11T08:24:50.517Z,95725.07
2018-08-11T08:27:21.186Z,95718.47
2018-08-11T08:29:52.749Z,95713.59
2018-08-11T08:32:23.366Z,95709.42
2018-08-11T08:34:53.587Z,95706.77
2018-08-11T08:37:24.144Z,95700.40
2018-08-11T08:39:55.706Z,95696.90
2018-08-11T08:42:26.351Z,95677.31
2018-08-11T08:44:56.904Z,95680.09
2018-08-11T08:47:27.696Z,95684.20
2018-08-11T08:49:58.583Z,95692.13
2018-08-11T08:52:29.680Z,95687.66
2018-08-11T08:55:00.310Z,95688.05
2018-08-11T08:57:30.799Z,95685.53
2018-08-11T09:00:02.385Z,95681.63
2018-08-11T09:02:33.465Z,95679.50
2018-08-11T09:05:03.975Z,95678.27
2018-08-11T09:07:34.532Z,95676.71
2018-08-11T09:10:05.032Z,95670.52
2018-08-11T09:12:35.543Z,95662.80
2018-08-11T09:15:06.588Z,95657.41
2018-08-11T09:17:37.264Z,95661.73
2018-08-11T09:20:08.546Z,95652.97
2018-08-11T09:22:39.191Z,95648.09
2018-08-11T09:25:09.601Z,95645.78
2018-08-11T09:27:40.243Z,95635.47
2018-08-11T09:30:11.555Z,95645.09
2018-08-11T09:32:41.892Z,95624.06
2018-08-11T09:35:12.322Z,95633.92
2018-08-11T09:37:42.921Z,95625.78
2018-08-11T09:40:13.509Z,95624.59
2018-08-11T09:42:44.210Z,95621.98
2018-08-11T09:45:14.508Z,95615.44
2018-08-11T09:47:44.869Z,95606.48
2018-08-11T09:50:15.432Z,95610.04
2018-08-11T09:52:46.133Z,95601.44
2018-08-11T09:55:16.262Z,95601.39
2018-08-11T09:57:46.525Z,95614.64
2018-08-11T10:00:22.133Z,95603.95
2018-08-11T10:02:53.251Z,95608.38
2018-08-11T10:05:23.920Z,95597.07
2018-08-11T10:07:54.292Z,95589.91
2018-08-11T10:10:25.476Z,95592.48
2018-08-11T10:12:55.756Z,95589.28
2018-08-11T10:15:26.387Z,95584.16
2018-08-11T10:17:57.035Z,95563.50
2018-08-11T10:20:28.020Z,95577.20
2018-08-11T10:22:58.603Z,95578.89
2018-08-11T10:25:29.114Z,95573.92
2018-08-11T10:27:59.158Z,95570.94
2018-08-11T10:30:29.680Z,95568.31
2018-08-11T10:32:59.611Z,95565.87
2018-08-11T10:35:30.076Z,95559.77
2018-08-11T10:38:00.653Z,95556.86
2018-08-11T10:40:31.873Z,95550.80
2018-08-11T10:43:01.682Z,95555.77
2018-08-11T10:45:31.508Z,95544.20
2018-08-11T10:48:01.987Z,95538.59
2018-08-11T10:50:33.069Z,95541.06
2018-08-11T10:53:02.928Z,95536.54
2018-08-11T10:55:32.900Z,95528.83
2018-08-11T10:58:03.460Z,95532.00
2018-08-11T11:00:33.309Z,95524.20
2018-08-11T11:03:03.446Z,95527.14
2018-08-11T11:05:33.910Z,95522.25
2018-08-11T11:08:03.969Z,95519.96
2018-08-11T11:10:35.078Z,95509.70
2018-08-11T11:13:05.339Z,95511.09
2018-08-11T11:15:35.939Z,95513.97
2018-08-11T11:18:06.851Z,95511.32
2018-08-11T11:20:37.956Z,95503.56
2018-08-11T11:23:08.128Z,95501.81
2018-08-11T11:25:38.287Z,95499.28
2018-08-11T11:28:08.074Z,95498.09
2018-08-11T11:30:38.355Z,95504.30
2018-08-11T11:33:08.252Z,95500.42
2018-08-11T11:35:37.908Z,95494.65
2018-08-11T11:38:07.698Z,95494.00
2018-08-11T11:40:37.543Z,95452.13
2018-08-11T11:43:07.307Z,95486.44
2018-08-11T11:45:36.988Z,95484.48
2018-08-11T11:48:06.973Z,95486.19
2018-08-11T11:50:36.738Z,95481.11
2018-08-11T11:53:06.618Z,95481.64
2018-08-11T11:55:36.415Z,95475.42
2018-08-11T11:58:06.147Z,95471.77
2018-08-11T12:00:37.023Z,95474.11
2018-08-11T12:03:07.128Z,95472.39
2018-08-11T12:05:36.966Z,95467.27
2018-08-11T12:08:06.717Z,95471.64
2018-08-11T12:10:36.566Z,95463.98
2018-08-11T12:13:06.179Z,95460.13
2018-08-11T12:17:04.873Z,95462.53
2018-08-11T12:19:34.648Z,95453.53
2018-08-11T12:22:04.513Z,95449.41
2018-08-11T12:24:34.412Z,95444.85
2018-08-11T12:27:04.307Z,95435.67
2018-08-11T12:29:34.083Z,95433.13
2018-08-11T12:32:03.816Z,95431.16
2018-08-11T12:34:33.641Z,95428.58
2018-08-11T12:37:03.628Z,95423.39
2018-08-11T12:39:33.477Z,95417.75
2018-08-11T12:42:03.310Z,95415.89
2018-08-11T12:44:33.108Z,95416.81
2018-08-11T12:47:02.892Z,95411.91
2018-08-11T12:49:32.673Z,95408.09
2018-08-11T12:52:02.532Z,95405.48
2018-08-11T12:54:32.252Z,95411.50
2018-08-11T12:57:01.917Z,95400.28
2018-08-11T12:59:31.709Z,95401.84
2018-08-11T13:02:01.542Z,95400.55
2018-08-11T13:04:32.459Z,95402.00
2018-08-11T13:07:02.758Z,95401.14
2018-08-11T13:09:33.631Z,95401.06
2018-08-11T13:12:04.060Z,95395.23
2018-08-11T13:14:33.755Z,95403.15
2018-08-11T13:17:03.478Z,95399.38
2018-08-11T13:19:33.240Z,95394.36
2018-08-11T13:22:03.021Z,95396.74
2018-08-11T13:24:32.702Z,95390.41
2018-08-11T13:27:02.989Z,95396.80
2018-08-11T13:29:33.380Z,95392.60
2018-08-11T13:32:03.893Z,95387.42
2018-08-11T13:34:33.597Z,95388.19
2018-08-11T13:37:03.750Z,95381.36
2018-08-11T13:39:34.683Z,95380.94
2018-08-11T13:42:04.916Z,95380.16
2018-08-11T13:44:35.391Z,95340.44
2018-08-11T13:47:05.473Z,95370.59
2018-08-11T13:49:36.691Z,95375.86
2018-08-11T13:52:07.553Z,95376.17
2018-08-11T13:54:37.772Z,95369.55
2018-08-11T13:57:08.712Z,95366.34
2018-08-11T13:59:39.706Z,95372.42
2018-08-11T14:02:10.704Z,95365.63
2018-08-11T14:04:41.490Z,95367.91
2018-08-11T14:07:12.083Z,95368.08
2018-08-11T14:09:42.330Z,95364.69
2018-08-11T14:12:13.250Z,95359.41
2018-08-11T14:14:43.669Z,95355.08
2018-08-11T14:17:14.036Z,95355.84
2018-08-11T14:19:44.909Z,95358.87
2018-08-11T14:22:15.223Z,95359.16
2018-08-11T14:24:45.336Z,95358.13
2018-08-11T14:27:16.199Z,95358.91
2018-08-11T14:29:47.498Z,95357.51
2018-08-11T14:32:17.234Z,95354.78
2018-08-11T14:34:47.695Z,95351.92
2018-08-11T14:37:18.109Z,95356.02
2018-08-11T14:39:49.484Z,95350.60
2018-08-11T14:42:20.116Z,95353.41
2018-08-11T14:44:50.621Z,95361.82
2018-08-11T14:47:21.489Z,95351.73
2018-08-11T14:49:52.568Z,95353.48
2018-08-11T14:52:22.781Z,95356.16
2018-08-11T14:54:52.700Z,95354.97
2018-08-11T14:57:23.317Z,95359.55
2018-08-11T14:59:53.537Z,95358.91
2018-08-11T15:02:23.455Z,95359.36
2018-08-11T15:04:53.340Z,95353.73
2018-08-11T15:07:22.956Z,95350.15
2018-08-11T15:09:52.707Z,95349.92
2018-08-11T15:12:22.423Z,95350.98
2018-08-11T15:14:52.116Z,95353.89
2018-08-11T15:17:21.888Z,95352.70
2018-08-11T15:19:51.540Z,95351.48
2018-08-11T15:22:21.384Z,95361.05
2018-08-11T15:24:51.109Z,95350.85
2018-08-11T15:27:20.909Z,95361.80
2018-08-11T15:29:50.732Z,95352.53
2018-08-11T15:32:20.611Z,95357.80
2018-08-11T15:34:50.310Z,95358.73
2018-08-11T15:37:20.066Z,95355.95
2018-08-11T15:39:49.912Z,95357.97
2018-08-11T15:42:19.664Z,95359.69
2018-08-11T15:44:49.392Z,95357.48
2018-08-11T15:47:19.179Z,95361.17
2018-08-11T15:49:48.988Z,95365.16
2018-08-11T15:52:18.744Z,95364.00
2018-08-11T15:54:48.610Z,95376.07
2018-08-11T15:57:18.504Z,95380.75
2018-08-11T15:59:48.093Z,95393.36
2018-08-11T16:02:17.810Z,95390.49
2018-08-11T16:04:47.655Z,95390.02
2018-08-11T16:07:17.796Z,95394.41
2018-08-11T16:09:47.866Z,95388.76
2018-08-11T16:12:17.685Z,95390.74
2018-08-11T16:14:47.336Z,95392.41
2018-08-11T16:17:17.167Z,95388.38
2018-08-11T16:19:47.116Z,95399.34
2018-08-11T16:22:16.966Z,95406.04
2018-08-11T16:24:46.677Z,95410.20
2018-08-11T16:27:16.328Z,95420.10
2018-08-11T16:29:46.061Z,95423.80
2018-08-11T16:32:15.884Z,95197.41
2018-08-11T16:34:45.668Z,95425.91
2018-08-11T16:37:15.211Z,95436.11
2018-08-11T16:39:44.909Z,95437.39
2018-08-11T16:42:14.656Z,95443.36
2018-08-11T16:44:44.387Z,95444.28
2018-08-11T16:47:14.164Z,95444.59
2018-08-11T16:49:43.901Z,95445.64
2018-08-11T16:52:13.656Z,95444.11
2018-08-11T16:54:43.377Z,95446.22
2018-08-11T16:57:13.012Z,95443.22
2018-08-11T16:59:42.746Z,95456.95
2018-08-11T17:02:12.335Z,95452.00
2018-08-11T17:04:42.346Z,95455.02
2018-08-11T17:07:12.768Z,95444.11
2018-08-11T17:09:43.022Z,95452.69
2018-08-11T17:12:12.815Z,95458.00
2018-08-11T17:14:42.665Z,95463.98
2018-08-11T17:17:13.262Z,95471.54
2018-08-11T17:19:44.168Z,95477.62
2018-08-11T17:22:15.000Z,95474.19
2018-08-11T17:24:45.476Z,95481.90
2018-08-11T17:27:15.888Z,95482.92
2018-08-11T17:29:47.181Z,95484.41
2018-08-11T17:32:17.957Z,95487.17
2018-08-11T17:34:48.459Z,95491.82
2018-08-11T17:37:19.189Z,95503.81
2018-08-11T17:39:49.631Z,95509.29
2018-08-11T17:42:20.204Z,95512.40
2018-08-11T17:44:50.660Z,95511.86
2018-08-11T17:47:20.949Z,95529.29
2018-08-11T17:49:51.797Z,95534.47
2018-08-11T17:52:22.062Z,95542.62
2018-08-11T17:54:52.532Z,95542.45
2018-08-11T17:57:22.811Z,95550.24
2018-08-11T17:59:53.181Z,95553.61
2018-08-11T18:02:23.409Z,95561.23
2018-08-11T18:04:53.892Z,95561.48
2018-08-11T18:07:24.226Z,95565.03
2018-08-11T18:09:55.112Z,95570.11
2018-08-11T18:12:26.718Z,95572.17
2018-08-11T18:14:57.303Z,95569.45
2018-08-11T18:17:28.067Z,95581.72
2018-08-11T18:19:59.180Z,95587.56
2018-08-11T18:22:29.591Z,95598.00
2018-08-11T18:25:00.104Z,95601.36
2018-08-11T18:27:30.579Z,95601.23
2018-08-11T18:30:01.605Z,95601.93
2018-08-11T18:32:32.462Z,95609.64
2018-08-11T18:35:03.238Z,95615.50
2018-08-11T18:37:33.676Z,95620.07
2018-08-11T18:40:05.832Z,95625.59
2018-08-11T18:42:36.385Z,95622.43
2018-08-11T18:45:07.322Z,95630.21
2018-08-11T18:47:37.833Z,95628.25
2018-08-11T18:50:08.529Z,95633.16
2018-08-11T18:52:39.141Z,95644.59
2018-08-11T18:55:10.734Z,95640.59
2018-08-11T18:57:41.245Z,95640.11
2018-08-11T19:00:17.642Z,95644.83
2018-08-11T19:02:48.104Z,95648.87
2018-08-11T19:05:18.763Z,95655.94
2018-08-11T19:07:49.404Z,95660.87
2018-08-11T19:10:20.926Z,95666.58
2018-08-11T19:12:51.575Z,95670.52
2018-08-11T19:15:22.082Z,95671.50
2018-08-11T19:17:52.617Z,95666.98
2018-08-11T19:20:23.860Z,95668.52
2018-08-11T19:22:54.333Z,95659.99
2018-08-11T19:25:25.038Z,95664.06
2018-08-11T19:27:55.472Z,95665.16
2018-08-11T19:30:26.584Z,95669.19
2018-08-11T19:32:56.273Z,95667.97
2018-08-11T19:35:26.777Z,95669.84
2018-08-11T19:37:57.335Z,95670.13
2018-08-11T19:40:28.062Z,95675.11
2018-08-11T19:42:58.320Z,95689.69
2018-08-11T19:45:28.595Z,95684.08
2018-08-11T19:47:59.043Z,95679.91
2018-08-11T19:50:29.928Z,95682.65
2018-08-11T19:53:00.234Z,95686.31
2018-08-11T19:55:30.976Z,95696.01
2018-08-11T19:58:01.307Z,95696.74
2018-08-11T20:00:32.252Z,95694.95
2018-08-11T20:03:03.083Z,95697.11
2018-08-11T20:05:32.940Z,95698.81
2018-08-11T20:08:02.770Z,95696.89
2018-08-11T20:10:33.916Z,95696.72
2018-08-11T20:13:03.745Z,95694.13
2018-08-11T20:15:33.547Z,95698.80
2018-08-11T20:18:03.138Z,95696.77
2018-08-11T20:20:33.058Z,95701.22
2018-08-11T20:23:02.666Z,95697.39
2018-08-11T20:25:32.539Z,95701.70
2018-08-11T20:28:02.308Z,95700.32
2018-08-11T20:30:32.131Z,95711.91
2018-08-11T20:33:02.042Z,95703.22
2018-08-11T20:35:32.623Z,95705.45
2018-08-11T20:38:03.083Z,95701.48
2018-08-11T20:40:33.433Z,95702.80
2018-08-11T20:43:03.309Z,95707.37
2018-08-11T20:45:33.138Z,95708.28
2018-08-11T20:48:02.883Z,95701.53
2018-08-11T20:50:32.559Z,95703.20
2018-08-11T20:53:02.299Z,95707.26
2018-08-11T20:55:32.021Z,95705.02
2018-08-11T20:58:01.795Z,95711.55
2018-08-11T21:00:31.628Z,95711.33
2018-08-11T21:03:01.477Z,95710.31
2018-08-11T21:05:31.245Z,95713.58
2018-08-11T21:08:01.100Z,95714.06
2018-08-11T21:10:31.040Z,95714.45
2018-08-11T21:13:01.249Z,95716.25
2018-08-11T21:15:31.104Z,95712.44
2018-08-11T21:18:00.834Z,95713.34
2018-08-11T21:20:30.638Z,95708.14
2018-08-11T21:23:00.378Z,95707.38
2018-08-11T21:25:30.349Z,95707.08
2018-08-11T21:28:00.978Z,95712.56
2018-08-11T21:30:30.825Z,95710.68
2018-08-11T21:33:00.627Z,95702.34
2018-08-11T21:35:30.408Z,95707.19
2018-08-11T21:38:00.118Z,95709.48
2018-08-11T21:40:29.787Z,95707.64
2018-08-11T21:42:59.338Z,95701.03
2018-08-11T21:45:28.972Z,95695.45
2018-08-11T21:47:58.853Z,95701.28
2018-08-11T21:50:28.725Z,95702.36
2018-08-11T21:52:58.508Z,95706.78
2018-08-11T21:55:28.332Z,95453.22
2018-08-11T21:57:58.084Z,95710.30
2018-08-11T22:00:32.644Z,95711.70
2018-08-11T22:03:02.765Z,95710.30
2018-08-11T22:05:33.092Z,95707.65
2018-08-11T22:08:03.848Z,95700.59
2018-08-11T22:10:34.589Z,95704.72
2018-08-11T22:13:05.196Z,95697.05
2018-08-11T22:15:35.570Z,95704.11
2018-08-11T22:18:05.494Z,95697.03
2018-08-11T22:20:35.867Z,95696.91
2018-08-11T22:23:05.576Z,95693.55
2018-08-11T22:25:35.204Z,95693.80
2018-08-11T22:28:05.027Z,95693.69
2018-08-11T22:30:34.731Z,95689.05
2018-08-11T22:33:04.632Z,95689.81
2018-08-11T22:35:35.129Z,95690.00
2018-08-11T22:38:06.349Z,95697.22
2018-08-11T22:40:37.831Z,95697.22
2018-08-11T22:43:08.058Z,95693.95
2018-08-11T22:45:38.528Z,95688.96
2018-08-11T22:48:09.341Z,95688.55
2018-08-11T22:50:39.551Z,95688.00
2018-08-11T22:53:09.941Z,95693.88
2018-08-11T22:55:40.273Z,95692.17
2018-08-11T22:58:10.630Z,95693.17
2018-08-11T23:00:41.349Z,95689.76
2018-08-11T23:03:11.518Z,95691.53
2018-08-11T23:05:42.130Z,95696.66
2018-08-11T23:08:12.428Z,95686.13
2018-08-11T23:10:42.906Z,95691.38
2018-08-11T23:13:13.124Z,95685.59
2018-08-11T23:15:42.982Z,95687.50
2018-08-11T23:18:12.676Z,95683.64
2018-08-11T23:20:43.252Z,95683.14
2018-08-11T23:23:13.032Z,95685.28
2018-08-11T23:25:42.697Z,95691.45
2018-08-11T23:28:12.407Z,95694.70
2018-08-11T23:30:42.243Z,95685.02
2018-08-11T23:33:11.901Z,95685.79
2018-08-11T23:35:41.668Z,95680.69
2018-08-11T23:38:11.442Z,95674.34
2018-08-11T23:40:41.112Z,95677.38
2018-08-11T23:43:10.721Z,95678.81
2018-08-11T23:45:40.520Z,95670.27
2018-08-11T23:48:10.255Z,95672.15
2018-08-11T23:50:40.084Z,95667.93
2018-08-11T23:53:09.717Z,95673.07
2018-08-11T23:55:39.428Z,95671.62
2018-08-11T23:58:09.172Z,95674.77
